createdAt,value
2019-05-22T00:01:42.637Z,34.67
2019-05-22T00:04:50.840Z,35.83
2019-05-22T00:07:55.804Z,35.80
2019-05-22T00:10:59.528Z,37.93
2019-05-22T00:14:04.968Z,36.27
2019-05-22T00:17:10.441Z,38.60
2019-05-22T00:20:14.389Z,38.17
2019-05-22T00:23:18.545Z,38.27
2019-05-22T00:26:22.878Z,38.10
2019-05-22T00:29:28.483Z,39.03
2019-05-22T00:32:33.724Z,39.47
2019-05-22T00:35:38.513Z,44.07
2019-05-22T00:38:43.780Z,39.73
2019-05-22T00:41:50.823Z,39.47
2019-05-22T00:44:55.948Z,39.70
2019-05-22T00:48:00.376Z,41.17
2019-05-22T00:51:11.060Z,36.67
2019-05-22T00:54:16.496Z,40.90
2019-05-22T00:57:21.621Z,39.13
2019-05-22T01:00:34.886Z,37.97
2019-05-22T01:03:38.787Z,39.03
2019-05-22T01:06:44.506Z,37.63
2019-05-22T01:09:51.159Z,40.27
2019-05-22T01:12:58.568Z,39.07
2019-05-22T01:16:05.008Z,41.13
2019-05-22T01:19:09.344Z,38.57
2019-05-22T01:22:14.728Z,43.90
2019-05-22T01:25:20.795Z,38.73
2019-05-22T01:28:25.860Z,38.03
2019-05-22T01:31:36.894Z,38.03
2019-05-22T01:34:40.985Z,36.77
2019-05-22T01:37:45.094Z,40.53
2019-05-22T01:41:01.679Z,37.97
2019-05-22T01:44:06.959Z,40.00
2019-05-22T01:47:15.160Z,40.37
2019-05-22T01:50:41.635Z,38.53
2019-05-22T01:53:46.845Z,40.37
2019-05-22T01:56:51.601Z,42.17
2019-05-22T01:59:55.634Z,37.97
2019-05-22T02:03:00.635Z,40.33
2019-05-22T02:06:07.249Z,41.43
2019-05-22T02:09:24.151Z,41.10
2019-05-22T02:12:34.824Z,38.87
2019-05-22T02:15:38.648Z,41.77
2019-05-22T02:18:45.081Z,44.43
2019-05-22T02:21:49.308Z,41.50
2019-05-22T02:24:53.229Z,45.77
2019-05-22T02:27:58.829Z,44.93
2019-05-22T02:31:04.198Z,45.57
2019-05-22T02:34:08.125Z,41.47
2019-05-22T02:37:12.727Z,42.33
2019-05-22T02:40:35.152Z,46.23
2019-05-22T02:43:39.387Z,43.87
2019-05-22T02:46:43.887Z,42.00
2019-05-22T02:49:50.320Z,39.47
2019-05-22T02:52:54.428Z,40.83
2019-05-22T02:55:58.502Z,38.70
2019-05-22T02:59:06.710Z,38.33
2019-05-22T03:02:12.689Z,39.33
2019-05-22T03:05:17.891Z,38.17
2019-05-22T03:08:22.371Z,40.73
2019-05-22T03:11:35.170Z,38.23
2019-05-22T03:14:40.003Z,40.53
2019-05-22T03:17:45.456Z,37.97
2019-05-22T03:20:49.414Z,37.13
2019-05-22T03:23:53.426Z,37.23
2019-05-22T03:26:57.425Z,35.40
2019-05-22T03:30:01.719Z,36.23
2019-05-22T03:33:07.610Z,32.03
2019-05-22T03:36:15.513Z,35.20
2019-05-22T03:39:19.046Z,31.23
2019-05-22T03:42:23.004Z,35.03
2019-05-22T03:45:28.380Z,35.27
2019-05-22T03:48:37.731Z,32.83
2019-05-22T03:51:41.425Z,31.90
2019-05-22T03:54:47.056Z,34.03
2019-05-22T03:57:50.982Z,38.97
2019-05-22T04:00:56.499Z,32.30
2019-05-22T04:04:02.149Z,31.03
2019-05-22T04:07:08.089Z,27.23
2019-05-22T04:10:13.265Z,35.70
2019-05-22T04:13:17.074Z,35.30
2019-05-22T04:16:22.249Z,32.00
2019-05-22T04:19:25.745Z,34.70
2019-05-22T04:22:29.840Z,35.57
2019-05-22T04:25:33.681Z,39.43
2019-05-22T04:28:48.960Z,36.50
2019-05-22T04:32:06.827Z,36.17
2019-05-22T04:35:13.687Z,34.03
2019-05-22T04:38:18.140Z,39.03
2019-05-22T04:41:21.948Z,39.73
2019-05-22T04:44:26.562Z,47.93
2019-05-22T04:47:30.657Z,45.87
2019-05-22T04:50:34.287Z,42.77
2019-05-22T04:53:38.020Z,44.30
2019-05-22T04:56:41.647Z,43.63
2019-05-22T04:59:45.244Z,43.60
2019-05-22T05:02:48.821Z,43.63
2019-05-22T05:05:52.804Z,38.10
2019-05-22T05:08:57.312Z,39.17
2019-05-22T05:12:00.865Z,42.10
2019-05-22T05:15:06.769Z,40.63
2019-05-22T05:18:10.260Z,42.50
2019-05-22T05:21:13.857Z,35.23
2019-05-22T05:24:17.432Z,32.90
2019-05-22T05:27:20.975Z,29.67
2019-05-22T05:30:26.872Z,35.13
2019-05-22T05:33:32.241Z,35.20
2019-05-22T05:36:36.436Z,31.03
2019-05-22T05:39:43.997Z,28.87
2019-05-22T05:42:47.865Z,28.57
2019-05-22T05:45:52.691Z,31.10
2019-05-22T05:48:56.913Z,30.20
2019-05-22T05:52:00.473Z,33.47
2019-05-22T05:55:05.268Z,34.07
2019-05-22T05:58:29.684Z,30.37
2019-05-22T06:01:35.540Z,33.43
2019-05-22T06:04:39.486Z,34.27
2019-05-22T06:07:43.105Z,34.10
2019-05-22T06:11:02.165Z,29.80
2019-05-22T06:14:08.741Z,30.03
2019-05-22T06:17:44.254Z,28.70
2019-05-22T06:21:03.265Z,27.30
2019-05-22T06:24:20.177Z,27.37
2019-05-22T06:27:30.446Z,29.83
2019-05-22T06:30:44.764Z,30.13
2019-05-22T06:33:48.401Z,28.13
2019-05-22T06:36:52.029Z,27.03
2019-05-22T06:39:55.977Z,28.13
2019-05-22T06:43:18.985Z,26.33
2019-05-22T06:46:44.587Z,26.73
2019-05-22T06:49:51.138Z,29.40
2019-05-22T06:53:09.418Z,24.63
2019-05-22T06:56:12.800Z,26.67
2019-05-22T06:59:17.339Z,27.00
2019-05-22T07:02:22.821Z,25.93
2019-05-22T07:05:26.654Z,26.57
2019-05-22T07:08:30.115Z,29.37
2019-05-22T07:11:35.420Z,25.13
2019-05-22T07:14:43.427Z,26.23
2019-05-22T07:17:47.733Z,22.33
2019-05-22T07:20:52.821Z,25.83
2019-05-22T07:23:57.434Z,23.23
2019-05-22T07:27:22.610Z,24.40
2019-05-22T07:30:45.089Z,23.47
2019-05-22T07:33:49.786Z,23.63
2019-05-22T07:36:54.336Z,26.53
2019-05-22T07:39:58.134Z,23.77
2019-05-22T07:43:01.945Z,23.03
2019-05-22T07:46:05.945Z,21.83
2019-05-22T07:49:10.481Z,22.87
2019-05-22T07:52:14.544Z,20.20
2019-05-22T07:55:20.622Z,19.83
2019-05-22T07:58:26.597Z,18.80
2019-05-22T08:01:30.817Z,18.27
2019-05-22T08:04:34.804Z,19.17
2019-05-22T08:07:40.145Z,18.77
2019-05-22T08:10:44.934Z,17.37
2019-05-22T08:13:48.833Z,17.53
2019-05-22T08:16:53.065Z,16.70
2019-05-22T08:19:56.925Z,18.63
2019-05-22T08:23:01.203Z,16.17
2019-05-22T08:26:06.625Z,15.07
2019-05-22T08:29:10.360Z,17.03
2019-05-22T08:32:14.797Z,14.90
2019-05-22T08:35:19.279Z,14.57
2019-05-22T08:38:30.945Z,15.23
2019-05-22T08:41:37.480Z,15.40
2019-05-22T08:44:41.800Z,14.80
2019-05-22T08:47:45.629Z,13.13
2019-05-22T08:50:50.173Z,13.60
2019-05-22T08:53:54.018Z,13.20
2019-05-22T08:56:58.206Z,13.60
2019-05-22T09:00:02.018Z,12.20
2019-05-22T09:03:05.948Z,13.30
2019-05-22T09:06:09.673Z,10.57
2019-05-22T09:09:13.570Z,10.27
2019-05-22T09:12:17.174Z,12.47
2019-05-22T09:15:21.519Z,11.13
2019-05-22T09:18:25.991Z,11.53
2019-05-22T09:21:30.546Z,10.10
2019-05-22T09:24:34.573Z,10.97
2019-05-22T09:27:38.429Z,10.70
2019-05-22T09:30:41.954Z,10.00
2019-05-22T09:33:45.444Z,11.27
2019-05-22T09:36:48.954Z,10.03
2019-05-22T09:39:52.644Z,9.47
2019-05-22T09:42:56.286Z,10.77
2019-05-22T09:46:00.394Z,9.07
2019-05-22T09:49:04.250Z,7.53
2019-05-22T09:52:09.249Z,10.30
2019-05-22T09:55:13.219Z,11.47
2019-05-22T09:58:16.684Z,9.13
2019-05-22T10:01:20.568Z,7.00
2019-05-22T10:04:24.293Z,6.80
2019-05-22T10:07:28.285Z,7.50
2019-05-22T10:10:32.121Z,6.70
2019-05-22T10:13:36.099Z,5.67
2019-05-22T10:16:39.888Z,5.37
2019-05-22T10:19:43.729Z,5.00
2019-05-22T10:22:47.263Z,5.50
2019-05-22T10:25:51.886Z,7.23
2019-05-22T10:28:56.040Z,5.43
2019-05-22T10:31:59.495Z,5.90
2019-05-22T10:35:03.148Z,6.90
2019-05-22T10:38:07.289Z,5.90
2019-05-22T10:41:11.649Z,7.00
2019-05-22T10:44:15.200Z,7.07
2019-05-22T10:47:19.126Z,7.50
2019-05-22T10:50:24.056Z,7.23
2019-05-22T10:53:34.166Z,7.63
2019-05-22T10:56:36.113Z,7.30
2019-05-22T10:59:40.769Z,12.80
2019-05-22T11:02:44.785Z,8.77
2019-05-22T11:06:05.759Z,7.60
2019-05-22T11:08:54.036Z,7.97
2019-05-22T11:11:57.954Z,7.63
2019-05-22T11:15:02.014Z,7.90
2019-05-22T11:18:06.409Z,7.33
2019-05-22T11:21:10.316Z,7.77
2019-05-22T11:24:14.137Z,7.97
2019-05-22T11:27:17.853Z,9.73
2019-05-22T11:30:21.923Z,9.87
2019-05-22T11:33:25.757Z,9.80
2019-05-22T11:36:29.847Z,9.87
2019-05-22T11:39:39.535Z,10.87
2019-05-22T11:42:40.809Z,11.30
2019-05-22T11:45:45.519Z,11.30
2019-05-22T11:48:49.768Z,11.17
2019-05-22T11:51:53.413Z,11.27
2019-05-22T11:54:57.249Z,10.73
2019-05-22T11:58:00.973Z,9.30
2019-05-22T12:01:34.807Z,9.83
2019-05-22T12:04:47.894Z,10.87
2019-05-22T12:07:46.148Z,10.17
2019-05-22T12:10:51.456Z,10.83
2019-05-22T12:13:55.018Z,12.50
2019-05-22T12:16:59.141Z,11.67
2019-05-22T12:20:04.098Z,11.87
2019-05-22T12:23:07.729Z,12.37
2019-05-22T12:26:12.161Z,11.70
2019-05-22T12:29:17.473Z,14.43
2019-05-22T12:32:22.040Z,13.70
2019-05-22T12:35:27.645Z,13.33
2019-05-22T12:38:32.881Z,13.00
2019-05-22T12:41:37.580Z,11.83
2019-05-22T12:44:41.605Z,11.73
2019-05-22T12:47:45.434Z,11.83
2019-05-22T12:50:49.463Z,11.23
2019-05-22T12:53:53.364Z,12.57
2019-05-22T12:56:57.197Z,10.67
2019-05-22T13:00:02.814Z,11.57
2019-05-22T13:03:09.212Z,11.87
2019-05-22T13:06:13.305Z,10.30
2019-05-22T13:09:17.029Z,10.07
2019-05-22T13:12:21.327Z,10.87
2019-05-22T13:15:25.688Z,10.73
2019-05-22T13:18:30.202Z,9.87
2019-05-22T13:21:35.165Z,10.20
2019-05-22T13:24:39.872Z,14.70
2019-05-22T13:27:44.822Z,9.83
2019-05-22T13:30:53.021Z,9.63
2019-05-22T13:33:58.927Z,11.07
2019-05-22T13:37:02.642Z,9.53
2019-05-22T13:40:26.581Z,10.07
2019-05-22T13:43:15.876Z,9.67
2019-05-22T13:46:19.836Z,9.93
2019-05-22T13:49:23.679Z,9.60
2019-05-22T13:52:28.173Z,8.63
2019-05-22T13:55:33.213Z,8.70
2019-05-22T13:58:36.909Z,9.43
2019-05-22T14:01:40.603Z,9.80
2019-05-22T14:04:44.729Z,7.97
2019-05-22T14:07:48.628Z,8.50
2019-05-22T14:10:53.825Z,8.83
2019-05-22T14:13:58.163Z,8.80
